Saga Sapphire — 9HOF8 — position and weather

sailwx.info

Track history (hours):
 
Tides and Currents Weather Stations Pressure Air Temp Water Temp Dewpoint Dewpoint Depression Visibility Wind Speed Wind Dir Waves Ship Positions

Saga Sapphire

Last reported at 2018-Nov-11 02:32 UTC. Time now 2018-Nov-18 16:08 UTC.
Position N 52°28' E 004°20'.

Length 200 m; draft 8.3 m.

Type: Passenger vessel. MMSI: 256208000.

Date/timePositionNaut miles runAvg speedWind from/ knotsBaromVisibWave heightAir tempDewpointWater temp
2018-Nov-11 02:32N 52°28' E 004°20'713.4
2018-Nov-11 02:02N 52°29' E 004°09'714.8
2018-Nov-11 01:32N 52°27' E 003°57'714.5
2018-Nov-11 01:02N 52°25' E 003°45'612.4
2018-Nov-11 00:32N 52°21' E 003°38'712.5
2018-Nov-11 00:00N 52°15' E 003°34'511.5
2018-Nov-10 23:32N 52°10' E 003°30'511.1
2018-Nov-10 23:02N 52°05' E 003°26'711.4
2018-Nov-10 22:25N 51°58' E 003°24'510.9
2018-Nov-10 21:56N 51°53' E 003°21'510.7
2018-Nov-10 21:27N 51°48' E 003°18'510.8
2018-Nov-10 20:59N 51°44' E 003°15'511.1
2018-Nov-10 20:32N 51°39' E 003°12'611.6
2018-Nov-10 20:02N 51°33' E 003°10'611.4
2018-Nov-10 19:33N 51°29' E 003°03'611.6
2018-Nov-10 19:02N 51°27' E 002°55'611.4
2018-Nov-10 18:32N 51°24' E 002°47'2 4.5
2018-Nov-10 18:02N 51°22' E 002°46'613.1
2018-Nov-10 17:32N 51°23' E 002°56'612.7
2018-Nov-10 17:02N 51°24' E 003°06'510.0
2018-Nov-10 16:32N 51°21' E 003°12'1 1.7
2018-Nov-10 16:01N 51°20' E 003°13'0 0.0
2018-Nov-10 15:30N 51°20' E 003°13'0 0.0
2018-Nov-10 15:00N 51°20' E 003°13'0 0.0
2018-Nov-10 14:30N 51°20' E 003°13'0 0.0
2018-Nov-10 14:00N 51°20' E 003°13'0 0.0
2018-Nov-10 13:30N 51°20' E 003°13'0 0.0
2018-Nov-10 13:00N 51°20' E 003°13'0 0.0
2018-Nov-10 12:30N 51°20' E 003°13'0 0.0
2018-Nov-10 12:00N 51°20' E 003°13'0 0.0
2018-Nov-10 11:30N 51°20' E 003°13'0 0.0
2018-Nov-10 11:00N 51°20' E 003°13'0 0.0
2018-Nov-10 10:30N 51°20' E 003°13'0 0.0
2018-Nov-10 10:00N 51°20' E 003°13'0 0.0
2018-Nov-10 09:30N 51°20' E 003°13'0 0.0
2018-Nov-10 09:00N 51°20' E 003°13'0 0.0
2018-Nov-10 08:27N 51°20' E 003°13'0 0.0
2018-Nov-10 08:00N 51°20' E 003°13'0 0.3
2018-Nov-10 07:32N 51°20' E 003°13'1 2.9
2018-Nov-10 07:02N 51°22' E 003°12'3 6.8
2018-Nov-10 06:32N 51°24' E 003°07'612.3
2018-Nov-10 06:03N 51°23' E 002°58'713.9
2018-Nov-10 05:32N 51°22' E 002°47'5 8.2
2018-Nov-10 04:54N 51°22' E 002°38'514.6
2018-Nov-10 04:32N 51°22' E 002°30'815.8
2018-Nov-10 04:03N 51°19' E 002°18'815.4
2018-Nov-10 03:33N 51°15' E 002°07'816.2
2018-Nov-10 03:02N 51°11' E 001°56'815.1
2018-Nov-10 02:32N 51°07' E 001°46'815.8
2018-Nov-10 02:02N 51°01' E 001°38'815.8
2018-Nov-10 01:32N 50°55' E 001°29'816.8
2018-Nov-10 01:02N 50°47' E 001°26'815.5
2018-Nov-10 00:31N 50°40' E 001°18'5115.3
2018-Nov-09 21:09N 50°19' E 000°05'218.3
2018-Nov-09 21:01N 50°19' E 000°01'2316.1
2018-Nov-09 19:37N 50°30' W 000°30'216.0
2018-Nov-09 19:28N 50°31' W 000°34'716.4
2018-Nov-09 19:03N 50°35' W 000°43'815.5
2018-Nov-09 18:32N 50°39' W 000°53'611.2
2018-Nov-09 18:03N 50°43' W 000°60'510.7
2018-Nov-09 17:32N 50°45' W 001°07'713.5
2018-Nov-09 17:03N 50°47' W 001°18'4 8.9
2018-Nov-09 16:33N 50°51' W 001°20'3 6.3
2018-Nov-09 16:02N 50°53' W 001°24'0 0.0
2018-Nov-09 15:29N 50°53' W 001°24'0 0.0
2018-Nov-09 15:02N 50°53' W 001°24'0 0.0
2018-Nov-09 14:32N 50°53' W 001°24'0 0.0
2018-Nov-09 14:02N 50°53' W 001°24'0 0.0
2018-Nov-09 13:32N 50°53' W 001°24'0 0.0
2018-Nov-09 13:02N 50°53' W 001°24'0 0.0
2018-Nov-09 12:32N 50°53' W 001°24'0 0.0
2018-Nov-09 12:02N 50°53' W 001°24'0 0.0
2018-Nov-09 11:32N 50°53' W 001°24'0 0.0
2018-Nov-09 10:59N 50°53' W 001°24'0 0.0
2018-Nov-09 10:32N 50°53' W 001°24'0 0.0
2018-Nov-09 10:02N 50°53' W 001°24'0 0.0
2018-Nov-09 09:32N 50°53' W 001°24'0 0.0
2018-Nov-09 09:02N 50°53' W 001°24'0 0.0
2018-Nov-09 08:32N 50°53' W 001°24'0 0.0
2018-Nov-09 08:02N 50°53' W 001°24'0 0.0
2018-Nov-09 07:23N 50°53' W 001°24'0 0.2
2018-Nov-09 07:02N 50°53' W 001°24'2 4.0
2018-Nov-09 06:32N 50°52' W 001°22'5 9.0
2018-Nov-09 06:02N 50°48' W 001°18'611.3
2018-Nov-09 05:33N 50°46' W 001°10'714.3
2018-Nov-09 05:02N 50°43' W 000°60'5 9.3
2018-Nov-09 04:33N 50°39' W 000°56'5 9.6
2018-Nov-09 04:03N 50°35' W 000°60'611.2
2018-Nov-09 03:32N 50°32' W 001°07'613.1
2018-Nov-09 03:03N 50°29' W 001°16'1713.1
2018-Nov-09 01:46N 50°23' W 001°40'3411.3
2018-Nov-08 22:46N 50°19' W 002°34'312.6
2018-Nov-08 22:32N 50°18' W 002°38'612.7
2018-Nov-08 22:02N 50°17' W 002°47'713.4
2018-Nov-08 21:32N 50°14' W 002°57'714.2
2018-Nov-08 21:02N 50°10' W 003°07'814.4
2018-Nov-08 20:30N 50°05' W 003°16'714.7
2018-Nov-08 20:02N 49°59' W 003°20'714.9
2018-Nov-08 19:32N 49°53' W 003°28'7317.0
2018-Nov-08 15:14N 48°60' W 004°44'418.3
2018-Nov-08 15:02N 48°57' W 004°48'918.3
2018-Nov-08 14:33N 48°51' W 004°58'918.3
2018-Nov-08 14:03N 48°44' W 005°07'918.1
2018-Nov-08 13:32N 48°37' W 005°16'917.6
2018-Nov-08 13:02N 48°30' W 005°25'2417.0
2018-Nov-08 11:38N 48°10' W 005°43'20216.0
2018-Nov-07 23:00N 44°54' W 006°54'34914.3 200 / 261013.410.8 14.4 8.717.0
2018-Nov-06 22:35N 39°29' W 009°44'915.7
2018-Nov-06 22:00N 39°19' W 009°43'815.8
2018-Nov-06 21:30N 39°12' W 009°43'715.8
2018-Nov-06 21:03N 39°05' W 009°43'115.7
2018-Nov-06 21:00N 39°04' W 009°43'815.6
2018-Nov-06 20:31N 38°56' W 009°43'715.7
2018-Nov-06 20:03N 38°49' W 009°43'116.1
2018-Nov-06 20:00N 38°48' W 009°43'815.7
2018-Nov-06 19:30N 38°40' W 009°42'613.5
2018-Nov-06 19:04N 38°37' W 009°35'116.2
2018-Nov-06 19:01N 38°37' W 009°34'815.4
2018-Nov-06 18:30N 38°36' W 009°25'715.3
2018-Nov-06 18:04N 38°41' W 009°18'114.2
2018-Nov-06 18:00N 38°41' W 009°18'611.2
2018-Nov-06 17:30N 38°41' W 009°10'2 4.3
2018-Nov-06 16:58N 38°43' W 009°08'0 0.0
2018-Nov-06 16:30N 38°43' W 009°08'0 0.0
2018-Nov-06 16:00N 38°43' W 009°08'0 0.0
2018-Nov-06 15:30N 38°43' W 009°08'0 0.0
2018-Nov-06 15:03N 38°43' W 009°08'0 0.1
2018-Nov-06 15:00N 38°43' W 009°08'0 0.0
2018-Nov-06 14:30N 38°43' W 009°08'0 0.0
2018-Nov-06 14:02N 38°43' W 009°08'0 0.2
2018-Nov-06 14:00N 38°43' W 009°08'0 0.0
2018-Nov-06 13:28N 38°43' W 009°08'0 0.0
2018-Nov-06 12:51N 38°43' W 009°08'0 0.0
2018-Nov-06 12:30N 38°43' W 009°08'0 0.0
2018-Nov-06 11:50N 38°43' W 009°08'0 0.0
2018-Nov-06 11:31N 38°43' W 009°08'0 0.0
2018-Nov-06 11:03N 38°43' W 009°08'0 0.0
2018-Nov-06 10:54N 38°43' W 009°08'0 0.0
2018-Nov-06 10:26N 38°43' W 009°08'0 0.0
2018-Nov-06 10:03N 38°43' W 009°08'0 0.1
2018-Nov-06 09:58N 38°43' W 009°08'0 0.0
2018-Nov-06 09:30N 38°43' W 009°08'0 0.0
2018-Nov-06 09:02N 38°43' W 009°08'0 0.0
2018-Nov-06 09:00N 38°43' W 009°08'0 0.1
2018-Nov-06 08:30N 38°43' W 009°08'1 2.1
2018-Nov-06 08:03N 38°42' W 009°08'0 8.1
2018-Nov-06 08:00N 38°42' W 009°09'4 8.9
2018-Nov-06 07:30N 38°41' W 009°15'4 9.7
2018-Nov-06 07:03N 38°39' W 009°20'112.9
2018-Nov-06 07:00N 38°39' W 009°20'714.1
2018-Nov-06 06:30N 38°33' W 009°25'715.7
2018-Nov-06 06:03N 38°26' W 009°26'115.3
2018-Nov-06 06:00N 38°25' W 009°26'815.8
2018-Nov-06 05:30N 38°17' W 009°25'715.9
2018-Nov-06 05:03N 38°10' W 009°25'116.1
2018-Nov-06 05:00N 38°09' W 009°25'816.0
2018-Nov-06 04:30N 38°01' W 009°25'715.9
2018-Nov-06 04:03N 37°54' W 009°24'115.7
2018-Nov-06 04:00N 37°53' W 009°24'815.8
2018-Nov-06 03:30N 37°45' W 009°24'715.2
2018-Nov-06 03:03N 37°39' W 009°23'515.3
2018-Nov-06 02:43N 37°33' W 009°23'6013.5
2018-Nov-05 22:18N 36°39' W 008°52'1415.0
2018-Nov-05 21:23N 36°35' W 008°35'369 9.4
2018-Nov-04 06:03N 37°35' W 000°59'0 1.2
2018-Nov-04 05:54N 37°36' W 000°59'5 6.0
2018-Nov-04 04:59N 37°30' W 000°59'612.9
2018-Nov-04 04:30N 37°28' W 000°51'613.3
2018-Nov-04 04:03N 37°29' W 000°44'113.5
2018-Nov-04 04:00N 37°29' W 000°43'713.6
2018-Nov-04 03:29N 37°29' W 000°34'614.1
2018-Nov-04 03:03N 37°29' W 000°26'115.1
2018-Nov-04 03:00N 37°29' W 000°26'815.1
2018-Nov-04 02:30N 37°28' W 000°16'  
2018-Nov-01 17:49N 38°35' E 012°42'515.6
2018-Nov-01 17:30N 38°34' E 012°49'815.6
2018-Nov-01 17:01N 38°33' E 012°58'115.7
2018-Nov-01 16:57N 38°33' E 012°59'715.7
2018-Nov-01 16:30N 38°32' E 013°08'716.2
2018-Nov-01 16:03N 38°31' E 013°18'116.3
2018-Nov-01 16:00N 38°31' E 013°19'816.2
2018-Nov-01 15:30N 38°30' E 013°29'716.2
2018-Nov-01 15:03N 38°29' E 013°38'216.1
2018-Nov-01 14:57N 38°29' E 013°40'1516.0
2018-Nov-01 14:00N 38°27' E 013°60'916.5
2018-Nov-01 13:28N 38°26' E 014°11'1816.3
2018-Nov-01 12:23N 38°24' E 014°33'815.3
2018-Nov-01 11:54N 38°23' E 014°43'814.9
2018-Nov-01 11:23N 38°21' E 014°52'514.7
2018-Nov-01 11:03N 38°20' E 014°58'114.6
2018-Nov-01 11:00N 38°20' E 014°59'714.4
2018-Nov-01 10:30N 38°20' E 015°08'714.7
2018-Nov-01 10:03N 38°20' E 015°17'114.9
2018-Nov-01 10:00N 38°21' E 015°18'714.8
2018-Nov-01 09:30N 38°20' E 015°27'715.2
2018-Nov-01 09:03N 38°20' E 015°36'115.1
2018-Nov-01 09:00N 38°20' E 015°37'610.0
2018-Nov-01 08:26N 38°15' E 015°40'512.2
2018-Nov-01 08:03N 38°12' E 015°37'113.9
2018-Nov-01 07:58N 38°10' E 015°37'612.7
2018-Nov-01 07:28N 38°04' E 015°36'712.4
2018-Nov-01 06:55N 37°57' E 015°37'712.5
2018-Nov-01 06:21N 37°52' E 015°43'512.6
2018-Nov-01 05:59N 37°51' E 015°48'  
Track history (hours):
 
Tides and Currents Weather Stations Pressure Air Temp Water Temp Dewpoint Dewpoint Depression Visibility Wind Speed Wind Dir Waves Ship Positions

Saga Sapphire

Last reported at 2018-Nov-11 02:32 UTC. Time now 2018-Nov-18 16:08 UTC.
Position N 52°28' E 004°20'.

Length 200 m; draft 8.3 m.

Type: Passenger vessel. MMSI: 256208000.

Date/timePositionNaut miles runAvg speedWind from/ knotsBaromVisibWave heightAir tempDewpointWater temp
2018-Nov-11 02:32N 52°28' E 004°20'713.4
2018-Nov-11 02:02N 52°29' E 004°09'714.8
2018-Nov-11 01:32N 52°27' E 003°57'714.5
2018-Nov-11 01:02N 52°25' E 003°45'612.4
2018-Nov-11 00:32N 52°21' E 003°38'712.5
2018-Nov-11 00:00N 52°15' E 003°34'511.5
2018-Nov-10 23:32N 52°10' E 003°30'511.1
2018-Nov-10 23:02N 52°05' E 003°26'711.4
2018-Nov-10 22:25N 51°58' E 003°24'510.9
2018-Nov-10 21:56N 51°53' E 003°21'510.7
2018-Nov-10 21:27N 51°48' E 003°18'510.8
2018-Nov-10 20:59N 51°44' E 003°15'511.1
2018-Nov-10 20:32N 51°39' E 003°12'611.6
2018-Nov-10 20:02N 51°33' E 003°10'611.4
2018-Nov-10 19:33N 51°29' E 003°03'611.6
2018-Nov-10 19:02N 51°27' E 002°55'611.4
2018-Nov-10 18:32N 51°24' E 002°47'2 4.5
2018-Nov-10 18:02N 51°22' E 002°46'613.1
2018-Nov-10 17:32N 51°23' E 002°56'612.7
2018-Nov-10 17:02N 51°24' E 003°06'510.0
2018-Nov-10 16:32N 51°21' E 003°12'1 1.7
2018-Nov-10 16:01N 51°20' E 003°13'0 0.0
2018-Nov-10 15:30N 51°20' E 003°13'0 0.0
2018-Nov-10 15:00N 51°20' E 003°13'0 0.0
2018-Nov-10 14:30N 51°20' E 003°13'0 0.0
2018-Nov-10 14:00N 51°20' E 003°13'0 0.0
2018-Nov-10 13:30N 51°20' E 003°13'0 0.0
2018-Nov-10 13:00N 51°20' E 003°13'0 0.0
2018-Nov-10 12:30N 51°20' E 003°13'0 0.0
2018-Nov-10 12:00N 51°20' E 003°13'0 0.0
2018-Nov-10 11:30N 51°20' E 003°13'0 0.0
2018-Nov-10 11:00N 51°20' E 003°13'0 0.0
2018-Nov-10 10:30N 51°20' E 003°13'0 0.0
2018-Nov-10 10:00N 51°20' E 003°13'0 0.0
2018-Nov-10 09:30N 51°20' E 003°13'0 0.0
2018-Nov-10 09:00N 51°20' E 003°13'0 0.0
2018-Nov-10 08:27N 51°20' E 003°13'0 0.0
2018-Nov-10 08:00N 51°20' E 003°13'0 0.3
2018-Nov-10 07:32N 51°20' E 003°13'1 2.9
2018-Nov-10 07:02N 51°22' E 003°12'3 6.8
2018-Nov-10 06:32N 51°24' E 003°07'612.3
2018-Nov-10 06:03N 51°23' E 002°58'713.9
2018-Nov-10 05:32N 51°22' E 002°47'5 8.2
2018-Nov-10 04:54N 51°22' E 002°38'514.6
2018-Nov-10 04:32N 51°22' E 002°30'815.8
2018-Nov-10 04:03N 51°19' E 002°18'815.4
2018-Nov-10 03:33N 51°15' E 002°07'816.2
2018-Nov-10 03:02N 51°11' E 001°56'815.1
2018-Nov-10 02:32N 51°07' E 001°46'815.8
2018-Nov-10 02:02N 51°01' E 001°38'815.8
2018-Nov-10 01:32N 50°55' E 001°29'816.8
2018-Nov-10 01:02N 50°47' E 001°26'815.5
2018-Nov-10 00:31N 50°40' E 001°18'5115.3
2018-Nov-09 21:09N 50°19' E 000°05'218.3
2018-Nov-09 21:01N 50°19' E 000°01'2316.1
2018-Nov-09 19:37N 50°30' W 000°30'216.0
2018-Nov-09 19:28N 50°31' W 000°34'716.4
2018-Nov-09 19:03N 50°35' W 000°43'815.5
2018-Nov-09 18:32N 50°39' W 000°53'611.2
2018-Nov-09 18:03N 50°43' W 000°60'510.7
2018-Nov-09 17:32N 50°45' W 001°07'713.5
2018-Nov-09 17:03N 50°47' W 001°18'4 8.9
2018-Nov-09 16:33N 50°51' W 001°20'3 6.3
2018-Nov-09 16:02N 50°53' W 001°24'0 0.0
2018-Nov-09 15:29N 50°53' W 001°24'0 0.0
2018-Nov-09 15:02N 50°53' W 001°24'0 0.0
2018-Nov-09 14:32N 50°53' W 001°24'0 0.0
2018-Nov-09 14:02N 50°53' W 001°24'0 0.0
2018-Nov-09 13:32N 50°53' W 001°24'0 0.0
2018-Nov-09 13:02N 50°53' W 001°24'0 0.0
2018-Nov-09 12:32N 50°53' W 001°24'0 0.0
2018-Nov-09 12:02N 50°53' W 001°24'0 0.0
2018-Nov-09 11:32N 50°53' W 001°24'0 0.0
2018-Nov-09 10:59N 50°53' W 001°24'0 0.0
2018-Nov-09 10:32N 50°53' W 001°24'0 0.0
2018-Nov-09 10:02N 50°53' W 001°24'0 0.0
2018-Nov-09 09:32N 50°53' W 001°24'0 0.0
2018-Nov-09 09:02N 50°53' W 001°24'0 0.0
2018-Nov-09 08:32N 50°53' W 001°24'0 0.0
2018-Nov-09 08:02N 50°53' W 001°24'0 0.0
2018-Nov-09 07:23N 50°53' W 001°24'0 0.2
2018-Nov-09 07:02N 50°53' W 001°24'2 4.0
2018-Nov-09 06:32N 50°52' W 001°22'5 9.0
2018-Nov-09 06:02N 50°48' W 001°18'611.3
2018-Nov-09 05:33N 50°46' W 001°10'714.3
2018-Nov-09 05:02N 50°43' W 000°60'5 9.3
2018-Nov-09 04:33N 50°39' W 000°56'5 9.6
2018-Nov-09 04:03N 50°35' W 000°60'611.2
2018-Nov-09 03:32N 50°32' W 001°07'613.1
2018-Nov-09 03:03N 50°29' W 001°16'1713.1
2018-Nov-09 01:46N 50°23' W 001°40'3411.3
2018-Nov-08 22:46N 50°19' W 002°34'312.6
2018-Nov-08 22:32N 50°18' W 002°38'612.7
2018-Nov-08 22:02N 50°17' W 002°47'713.4
2018-Nov-08 21:32N 50°14' W 002°57'714.2
2018-Nov-08 21:02N 50°10' W 003°07'814.4
2018-Nov-08 20:30N 50°05' W 003°16'714.7
2018-Nov-08 20:02N 49°59' W 003°20'714.9
2018-Nov-08 19:32N 49°53' W 003°28'7317.0
2018-Nov-08 15:14N 48°60' W 004°44'418.3
2018-Nov-08 15:02N 48°57' W 004°48'918.3
2018-Nov-08 14:33N 48°51' W 004°58'918.3
2018-Nov-08 14:03N 48°44' W 005°07'918.1
2018-Nov-08 13:32N 48°37' W 005°16'917.6
2018-Nov-08 13:02N 48°30' W 005°25'2417.0
2018-Nov-08 11:38N 48°10' W 005°43'20216.0
2018-Nov-07 23:00N 44°54' W 006°54'34914.3 200 / 261013.410.8 14.4 8.717.0
2018-Nov-06 22:35N 39°29' W 009°44'915.7
2018-Nov-06 22:00N 39°19' W 009°43'815.8
2018-Nov-06 21:30N 39°12' W 009°43'715.8
2018-Nov-06 21:03N 39°05' W 009°43'115.7
2018-Nov-06 21:00N 39°04' W 009°43'815.6
2018-Nov-06 20:31N 38°56' W 009°43'715.7
2018-Nov-06 20:03N 38°49' W 009°43'116.1
2018-Nov-06 20:00N 38°48' W 009°43'815.7
2018-Nov-06 19:30N 38°40' W 009°42'613.5
2018-Nov-06 19:04N 38°37' W 009°35'116.2
2018-Nov-06 19:01N 38°37' W 009°34'815.4
2018-Nov-06 18:30N 38°36' W 009°25'715.3
2018-Nov-06 18:04N 38°41' W 009°18'114.2
2018-Nov-06 18:00N 38°41' W 009°18'611.2
2018-Nov-06 17:30N 38°41' W 009°10'2 4.3
2018-Nov-06 16:58N 38°43' W 009°08'0 0.0
2018-Nov-06 16:30N 38°43' W 009°08'0 0.0
2018-Nov-06 16:00N 38°43' W 009°08'0 0.0
2018-Nov-06 15:30N 38°43' W 009°08'0 0.0
2018-Nov-06 15:03N 38°43' W 009°08'0 0.1
2018-Nov-06 15:00N 38°43' W 009°08'0 0.0
2018-Nov-06 14:30N 38°43' W 009°08'0 0.0
2018-Nov-06 14:02N 38°43' W 009°08'0 0.2
2018-Nov-06 14:00N 38°43' W 009°08'0 0.0
2018-Nov-06 13:28N 38°43' W 009°08'0 0.0
2018-Nov-06 12:51N 38°43' W 009°08'0 0.0
2018-Nov-06 12:30N 38°43' W 009°08'0 0.0
2018-Nov-06 11:50N 38°43' W 009°08'0 0.0
2018-Nov-06 11:31N 38°43' W 009°08'0 0.0
2018-Nov-06 11:03N 38°43' W 009°08'0 0.0
2018-Nov-06 10:54N 38°43' W 009°08'0 0.0
2018-Nov-06 10:26N 38°43' W 009°08'0 0.0
2018-Nov-06 10:03N 38°43' W 009°08'0 0.1
2018-Nov-06 09:58N 38°43' W 009°08'0 0.0
2018-Nov-06 09:30N 38°43' W 009°08'0 0.0
2018-Nov-06 09:02N 38°43' W 009°08'0 0.0
2018-Nov-06 09:00N 38°43' W 009°08'0 0.1
2018-Nov-06 08:30N 38°43' W 009°08'1 2.1
2018-Nov-06 08:03N 38°42' W 009°08'0 8.1
2018-Nov-06 08:00N 38°42' W 009°09'4 8.9
2018-Nov-06 07:30N 38°41' W 009°15'4 9.7
2018-Nov-06 07:03N 38°39' W 009°20'112.9
2018-Nov-06 07:00N 38°39' W 009°20'714.1
2018-Nov-06 06:30N 38°33' W 009°25'715.7
2018-Nov-06 06:03N 38°26' W 009°26'115.3
2018-Nov-06 06:00N 38°25' W 009°26'815.8
2018-Nov-06 05:30N 38°17' W 009°25'715.9
2018-Nov-06 05:03N 38°10' W 009°25'116.1
2018-Nov-06 05:00N 38°09' W 009°25'816.0
2018-Nov-06 04:30N 38°01' W 009°25'715.9
2018-Nov-06 04:03N 37°54' W 009°24'115.7
2018-Nov-06 04:00N 37°53' W 009°24'815.8
2018-Nov-06 03:30N 37°45' W 009°24'715.2
2018-Nov-06 03:03N 37°39' W 009°23'515.3
2018-Nov-06 02:43N 37°33' W 009°23'6013.5
2018-Nov-05 22:18N 36°39' W 008°52'1415.0
2018-Nov-05 21:23N 36°35' W 008°35'369 9.4
2018-Nov-04 06:03N 37°35' W 000°59'0 1.2
2018-Nov-04 05:54N 37°36' W 000°59'5 6.0
2018-Nov-04 04:59N 37°30' W 000°59'612.9
2018-Nov-04 04:30N 37°28' W 000°51'613.3
2018-Nov-04 04:03N 37°29' W 000°44'113.5
2018-Nov-04 04:00N 37°29' W 000°43'713.6
2018-Nov-04 03:29N 37°29' W 000°34'614.1
2018-Nov-04 03:03N 37°29' W 000°26'115.1
2018-Nov-04 03:00N 37°29' W 000°26'815.1
2018-Nov-04 02:30N 37°28' W 000°16'  
2018-Nov-01 17:49N 38°35' E 012°42'515.6
2018-Nov-01 17:30N 38°34' E 012°49'815.6
2018-Nov-01 17:01N 38°33' E 012°58'115.7
2018-Nov-01 16:57N 38°33' E 012°59'715.7
2018-Nov-01 16:30N 38°32' E 013°08'716.2
2018-Nov-01 16:03N 38°31' E 013°18'116.3
2018-Nov-01 16:00N 38°31' E 013°19'816.2
2018-Nov-01 15:30N 38°30' E 013°29'716.2
2018-Nov-01 15:03N 38°29' E 013°38'216.1
2018-Nov-01 14:57N 38°29' E 013°40'1516.0
2018-Nov-01 14:00N 38°27' E 013°60'916.5
2018-Nov-01 13:28N 38°26' E 014°11'1816.3
2018-Nov-01 12:23N 38°24' E 014°33'815.3
2018-Nov-01 11:54N 38°23' E 014°43'814.9
2018-Nov-01 11:23N 38°21' E 014°52'514.7
2018-Nov-01 11:03N 38°20' E 014°58'114.6
2018-Nov-01 11:00N 38°20' E 014°59'714.4
2018-Nov-01 10:30N 38°20' E 015°08'714.7
2018-Nov-01 10:03N 38°20' E 015°17'114.9
2018-Nov-01 10:00N 38°21' E 015°18'714.8
2018-Nov-01 09:30N 38°20' E 015°27'715.2
2018-Nov-01 09:03N 38°20' E 015°36'115.1
2018-Nov-01 09:00N 38°20' E 015°37'610.0
2018-Nov-01 08:26N 38°15' E 015°40'512.2
2018-Nov-01 08:03N 38°12' E 015°37'113.9
2018-Nov-01 07:58N 38°10' E 015°37'612.7
2018-Nov-01 07:28N 38°04' E 015°36'712.4
2018-Nov-01 06:55N 37°57' E 015°37'712.5
2018-Nov-01 06:21N 37°52' E 015°43'512.6
2018-Nov-01 05:59N 37°51' E 015°48'  

Dump ship's entire track history